sensor_id;sensor_type;location;lat;lon;timestamp;temperature;humidity
63407;SHT31;49543;45.892;10.838;2023-02-11T08:26:48;4.40;56.50
63407;SHT31;49543;45.892;10.838;2023-02-11T08:29:14;4.49;56.20
63407;SHT31;49543;45.892;10.838;2023-02-11T14:04:19;10.45;51.33
63407;SHT31;49543;45.892;10.838;2023-02-11T14:07:45;10.32;51.66
63407;SHT31;49543;45.892;10.838;2023-02-11T14:13:04;10.24;51.34
63407;SHT31;49543;45.892;10.838;2023-02-11T14:15:37;10.21;52.05
63407;SHT31;49543;45.892;10.838;2023-02-11T14:18:18;10.18;53.15
63407;SHT31;49543;45.892;10.838;2023-02-11T14:20:47;10.17;52.94
63407;SHT31;49543;45.892;10.838;2023-02-11T14:23:20;10.13;53.34
63407;SHT31;49543;45.892;10.838;2023-02-11T14:25:50;10.11;53.44
63407;SHT31;49543;45.892;10.838;2023-02-11T14:28:20;10.10;54.20
63407;SHT31;49543;45.892;10.838;2023-02-11T14:33:22;10.05;54.44
63407;SHT31;49543;45.892;10.838;2023-02-11T14:38:37;9.90;54.38
63407;SHT31;49543;45.892;10.838;2023-02-11T14:43:32;9.79;55.51
63407;SHT31;49543;45.892;10.838;2023-02-11T14:45:59;9.76;55.13
63407;SHT31;49543;45.892;10.838;2023-02-11T14:48:29;9.72;55.18
63407;SHT31;49543;45.892;10.838;2023-02-11T14:53:30;9.59;54.96
63407;SHT31;49543;45.892;10.838;2023-02-11T14:55:55;9.56;55.31
63407;SHT31;49543;45.892;10.838;2023-02-11T14:58:28;9.53;54.95
63407;SHT31;49543;45.892;10.838;2023-02-11T15:00:56;9.49;54.26
63407;SHT31;49543;45.892;10.838;2023-02-11T15:06:24;9.38;54.84
63407;SHT31;49543;45.892;10.838;2023-02-11T15:08:44;9.35;55.27
63407;SHT31;49543;45.892;10.838;2023-02-11T15:11:11;9.34;55.36
63407;SHT31;49543;45.892;10.838;2023-02-11T15:13:37;9.32;55.02
63407;SHT31;49543;45.892;10.838;2023-02-11T15:16:07;9.24;55.20
63407;SHT31;49543;45.892;10.838;2023-02-11T15:18:38;9.21;54.91
63407;SHT31;49543;45.892;10.838;2023-02-11T15:21:04;9.18;54.37
63407;SHT31;49543;45.892;10.838;2023-02-11T15:23:30;9.10;54.35
63407;SHT31;49543;45.892;10.838;2023-02-11T15:25:56;9.08;54.96
63407;SHT31;49543;45.892;10.838;2023-02-11T15:28:25;9.04;54.99
63407;SHT31;49543;45.892;10.838;2023-02-11T15:31:00;8.99;55.64
63407;SHT31;49543;45.892;10.838;2023-02-11T15:33:26;8.94;55.36
63407;SHT31;49543;45.892;10.838;2023-02-11T15:35:54;8.85;55.42
63407;SHT31;49543;45.892;10.838;2023-02-11T15:38:19;8.81;55.34
63407;SHT31;49543;45.892;10.838;2023-02-11T15:40:55;8.80;55.79
63407;SHT31;49543;45.892;10.838;2023-02-11T15:43:21;8.79;55.69
63407;SHT31;49543;45.892;10.838;2023-02-11T15:48:15;8.83;56.03
63407;SHT31;49543;45.892;10.838;2023-02-11T15:50:47;8.80;55.40
63407;SHT31;49543;45.892;10.838;2023-02-11T15:55:45;8.70;55.93
63407;SHT31;49543;45.892;10.838;2023-02-11T15:58:10;8.70;55.63
63407;SHT31;49543;45.892;10.838;2023-02-11T16:00:37;8.60;56.20
63407;SHT31;49543;45.892;10.838;2023-02-11T16:03:17;8.57;56.74
63407;SHT31;49543;45.892;10.838;2023-02-11T16:05:43;8.56;56.49
63407;SHT31;49543;45.892;10.838;2023-02-11T16:08:19;8.52;56.30
63407;SHT31;49543;45.892;10.838;2023-02-11T16:10:52;8.46;56.06
63407;SHT31;49543;45.892;10.838;2023-02-11T16:13:18;8.45;55.70
63407;SHT31;49543;45.892;10.838;2023-02-11T16:15:57;8.41;55.89
63407;SHT31;49543;45.892;10.838;2023-02-11T16:20:51;8.34;55.76
63407;SHT31;49543;45.892;10.838;2023-02-11T16:23:27;8.28;55.72
63407;SHT31;49543;45.892;10.838;2023-02-11T16:26:03;8.24;55.66
63407;SHT31;49543;45.892;10.838;2023-02-11T16:28:33;8.20;55.78
63407;SHT31;49543;45.892;10.838;2023-02-11T16:30:59;8.14;56.19
63407;SHT31;49543;45.892;10.838;2023-02-11T16:33:24;8.15;56.20
63407;SHT31;49543;45.892;10.838;2023-02-11T16:35:50;8.11;56.24
63407;SHT31;49543;45.892;10.838;2023-02-11T16:38:16;8.09;56.34
63407;SHT31;49543;45.892;10.838;2023-02-11T16:40:41;8.05;56.48
63407;SHT31;49543;45.892;10.838;2023-02-11T16:43:08;8.04;56.97
63407;SHT31;49543;45.892;10.838;2023-02-11T16:45:37;8.01;56.96
63407;SHT31;49543;45.892;10.838;2023-02-11T16:48:06;8.01;57.21
63407;SHT31;49543;45.892;10.838;2023-02-11T16:50:32;7.97;56.94
63407;SHT31;49543;45.892;10.838;2023-02-11T16:52:58;7.93;56.62
63407;SHT31;49543;45.892;10.838;2023-02-11T16:55:24;7.88;56.03
63407;SHT31;49543;45.892;10.838;2023-02-11T16:57:52;7.86;55.63
63407;SHT31;49543;45.892;10.838;2023-02-11T17:00:21;7.81;55.78
63407;SHT31;49543;45.892;10.838;2023-02-11T17:02:46;7.81;55.56
63407;SHT31;49543;45.892;10.838;2023-02-11T17:05:19;7.81;55.75
63407;SHT31;49543;45.892;10.838;2023-02-11T17:07:46;7.79;57.15
63407;SHT31;49543;45.892;10.838;2023-02-11T17:10:16;7.73;57.20
63407;SHT31;49543;45.892;10.838;2023-02-11T17:12:41;7.71;57.70
63407;SHT31;49543;45.892;10.838;2023-02-11T17:15:07;7.70;57.52
63407;SHT31;49543;45.892;10.838;2023-02-11T17:17:33;7.66;56.90
63407;SHT31;49543;45.892;10.838;2023-02-11T17:19:58;7.63;57.02
63407;SHT31;49543;45.892;10.838;2023-02-11T17:22:23;7.63;56.98
63407;SHT31;49543;45.892;10.838;2023-02-11T17:24:48;7.59;57.33
63407;SHT31;49543;45.892;10.838;2023-02-11T17:27:14;7.55;57.51
63407;SHT31;49543;45.892;10.838;2023-02-11T17:29:40;7.52;57.87
63407;SHT31;49543;45.892;10.838;2023-02-11T17:32:05;7.48;57.95
63407;SHT31;49543;45.892;10.838;2023-02-11T17:34:31;7.50;58.03
63407;SHT31;49543;45.892;10.838;2023-02-11T17:36:56;7.49;58.35
63407;SHT31;49543;45.892;10.838;2023-02-11T17:39:24;7.42;58.72
63407;SHT31;49543;45.892;10.838;2023-02-11T17:41:52;7.36;58.36
63407;SHT31;49543;45.892;10.838;2023-02-11T17:44:18;7.35;57.62
63407;SHT31;49543;45.892;10.838;2023-02-11T17:46:43;7.35;58.07
63407;SHT31;49543;45.892;10.838;2023-02-11T17:49:09;7.33;58.32
63407;SHT31;49543;45.892;10.838;2023-02-11T17:51:36;7.33;58.53
63407;SHT31;49543;45.892;10.838;2023-02-11T17:54:03;7.23;58.51
63407;SHT31;49543;45.892;10.838;2023-02-11T17:56:32;7.28;62.19
63407;SHT31;49543;45.892;10.838;2023-02-11T17:58:57;7.22;62.93
63407;SHT31;49543;45.892;10.838;2023-02-11T18:01:25;7.25;62.69
63407;SHT31;49543;45.892;10.838;2023-02-11T18:03:50;7.21;62.88
63407;SHT31;49543;45.892;10.838;2023-02-11T18:06:16;7.15;60.19
63407;SHT31;49543;45.892;10.838;2023-02-11T18:08:42;7.16;62.78
63407;SHT31;49543;45.892;10.838;2023-02-11T18:11:08;7.16;63.10
63407;SHT31;49543;45.892;10.838;2023-02-11T18:13:34;7.09;62.28
63407;SHT31;49543;45.892;10.838;2023-02-11T18:16:02;7.03;61.83
63407;SHT31;49543;45.892;10.838;2023-02-11T18:18:39;6.95;59.69
63407;SHT31;49543;45.892;10.838;2023-02-11T18:21:05;6.94;61.24
63407;SHT31;49543;45.892;10.838;2023-02-11T18:23:33;6.97;61.84
63407;SHT31;49543;45.892;10.838;2023-02-11T18:25:58;6.90;60.33
63407;SHT31;49543;45.892;10.838;2023-02-11T18:28:24;6.91;62.36
63407;SHT31;49543;45.892;10.838;2023-02-11T18:30:55;6.91;63.81
63407;SHT31;49543;45.892;10.838;2023-02-11T18:33:21;6.88;64.73
63407;SHT31;49543;45.892;10.838;2023-02-11T18:35:46;6.84;61.31
63407;SHT31;49543;45.892;10.838;2023-02-11T18:38:13;6.84;62.58
63407;SHT31;49543;45.892;10.838;2023-02-11T18:40:41;6.81;63.11
63407;SHT31;49543;45.892;10.838;2023-02-11T18:43:09;6.76;63.11
63407;SHT31;49543;45.892;10.838;2023-02-11T18:45:40;6.76;63.27
63407;SHT31;49543;45.892;10.838;2023-02-11T18:48:06;6.73;65.68
63407;SHT31;49543;45.892;10.838;2023-02-11T18:50:34;6.66;63.37
63407;SHT31;49543;45.892;10.838;2023-02-11T18:52:59;6.62;63.79
63407;SHT31;49543;45.892;10.838;2023-02-11T18:55:24;6.57;63.06
63407;SHT31;49543;45.892;10.838;2023-02-11T18:57:50;6.52;62.13
63407;SHT31;49543;45.892;10.838;2023-02-11T19:00:17;6.52;63.77
63407;SHT31;49543;45.892;10.838;2023-02-11T19:02:43;6.47;64.93
63407;SHT31;49543;45.892;10.838;2023-02-11T19:05:08;6.45;65.04
63407;SHT31;49543;45.892;10.838;2023-02-11T19:07:34;6.45;62.75
63407;SHT31;49543;45.892;10.838;2023-02-11T19:09:59;6.42;63.71
63407;SHT31;49543;45.892;10.838;2023-02-11T19:12:24;6.45;65.08
63407;SHT31;49543;45.892;10.838;2023-02-11T19:14:50;6.40;64.29
63407;SHT31;49543;45.892;10.838;2023-02-11T19:17:15;6.36;64.10
63407;SHT31;49543;45.892;10.838;2023-02-11T19:19:40;6.33;62.52
63407;SHT31;49543;45.892;10.838;2023-02-11T19:22:06;6.29;64.60
63407;SHT31;49543;45.892;10.838;2023-02-11T19:24:31;6.28;64.82
63407;SHT31;49543;45.892;10.838;2023-02-11T19:26:58;6.24;64.66
63407;SHT31;49543;45.892;10.838;2023-02-11T19:29:24;6.26;66.77
63407;SHT31;49543;45.892;10.838;2023-02-11T19:31:50;6.25;66.27
63407;SHT31;49543;45.892;10.838;2023-02-11T19:34:15;6.26;67.12
63407;SHT31;49543;45.892;10.838;2023-02-11T19:36:41;6.24;65.24
63407;SHT31;49543;45.892;10.838;2023-02-11T19:39:07;6.19;63.26
63407;SHT31;49543;45.892;10.838;2023-02-11T19:41:32;6.22;65.13
63407;SHT31;49543;45.892;10.838;2023-02-11T19:43:58;6.19;64.04
63407;SHT31;49543;45.892;10.838;2023-02-11T19:46:26;6.19;64.49
63407;SHT31;49543;45.892;10.838;2023-02-11T19:48:53;6.18;64.23
63407;SHT31;49543;45.892;10.838;2023-02-11T19:51:18;6.09;62.74
63407;SHT31;49543;45.892;10.838;2023-02-11T19:53:44;6.08;62.19
63407;SHT31;49543;45.892;10.838;2023-02-11T19:56:11;6.11;63.46
63407;SHT31;49543;45.892;10.838;2023-02-11T19:58:37;6.11;64.58
63407;SHT31;49543;45.892;10.838;2023-02-11T20:01:04;6.07;63.16
63407;SHT31;49543;45.892;10.838;2023-02-11T20:03:32;6.12;65.84
63407;SHT31;49543;45.892;10.838;2023-02-11T20:05:58;6.08;64.54
63407;SHT31;49543;45.892;10.838;2023-02-11T20:08:23;6.05;64.13
63407;SHT31;49543;45.892;10.838;2023-02-11T20:10:49;6.05;64.07
63407;SHT31;49543;45.892;10.838;2023-02-11T20:13:14;6.12;63.96
63407;SHT31;49543;45.892;10.838;2023-02-11T20:15:39;6.12;67.20
63407;SHT31;49543;45.892;10.838;2023-02-11T20:18:05;6.12;64.02
63407;SHT31;49543;45.892;10.838;2023-02-11T20:20:30;6.14;63.65
63407;SHT31;49543;45.892;10.838;2023-02-11T20:22:56;6.15;66.23
63407;SHT31;49543;45.892;10.838;2023-02-11T20:25:22;6.14;67.27
63407;SHT31;49543;45.892;10.838;2023-02-11T20:27:48;6.17;66.97
63407;SHT31;49543;45.892;10.838;2023-02-11T20:30:13;6.18;65.27
63407;SHT31;49543;45.892;10.838;2023-02-11T20:32:39;6.17;66.38
63407;SHT31;49543;45.892;10.838;2023-02-11T20:35:04;6.12;66.61
63407;SHT31;49543;45.892;10.838;2023-02-11T20:37:31;6.12;67.62
63407;SHT31;49543;45.892;10.838;2023-02-11T20:39:56;6.04;65.71
63407;SHT31;49543;45.892;10.838;2023-02-11T20:42:23;6.02;66.16
63407;SHT31;49543;45.892;10.838;2023-02-11T20:44:48;5.98;63.26
63407;SHT31;49543;45.892;10.838;2023-02-11T20:47:13;6.02;65.20
63407;SHT31;49543;45.892;10.838;2023-02-11T20:49:38;5.98;65.11
63407;SHT31;49543;45.892;10.838;2023-02-11T20:52:04;5.97;64.88
63407;SHT31;49543;45.892;10.838;2023-02-11T20:54:29;5.94;64.52
63407;SHT31;49543;45.892;10.838;2023-02-11T20:56:55;5.94;63.59
63407;SHT31;49543;45.892;10.838;2023-02-11T20:59:22;5.95;63.17
63407;SHT31;49543;45.892;10.838;2023-02-11T21:01:48;5.94;63.66
63407;SHT31;49543;45.892;10.838;2023-02-11T21:04:18;6.00;66.69
63407;SHT31;49543;45.892;10.838;2023-02-11T21:06:45;6.04;65.75
63407;SHT31;49543;45.892;10.838;2023-02-11T21:09:15;6.05;66.47
63407;SHT31;49543;45.892;10.838;2023-02-11T21:11:43;6.09;66.68
63407;SHT31;49543;45.892;10.838;2023-02-11T21:14:09;6.07;65.83
63407;SHT31;49543;45.892;10.838;2023-02-11T21:16:35;5.98;62.53
63407;SHT31;49543;45.892;10.838;2023-02-11T21:19:00;6.01;62.46
63407;SHT31;49543;45.892;10.838;2023-02-11T21:21:27;6.04;65.88
63407;SHT31;49543;45.892;10.838;2023-02-11T21:23:55;6.05;65.88
63407;SHT31;49543;45.892;10.838;2023-02-11T21:26:21;6.08;66.11
63407;SHT31;49543;45.892;10.838;2023-02-11T21:28:46;6.08;67.25
63407;SHT31;49543;45.892;10.838;2023-02-11T21:31:19;6.08;66.37
63407;SHT31;49543;45.892;10.838;2023-02-11T21:33:46;6.11;65.50
63407;SHT31;49543;45.892;10.838;2023-02-11T21:36:11;6.02;63.78
63407;SHT31;49543;45.892;10.838;2023-02-11T21:38:38;6.00;66.97
63407;SHT31;49543;45.892;10.838;2023-02-11T21:41:06;5.97;66.42
63407;SHT31;49543;45.892;10.838;2023-02-11T21:43:32;5.98;66.01
63407;SHT31;49543;45.892;10.838;2023-02-11T21:45:58;5.98;66.81
63407;SHT31;49543;45.892;10.838;2023-02-11T21:48:23;5.95;64.90
63407;SHT31;49543;45.892;10.838;2023-02-11T21:50:50;5.98;66.86
63407;SHT31;49543;45.892;10.838;2023-02-11T21:53:19;6.00;66.34
63407;SHT31;49543;45.892;10.838;2023-02-11T21:55:45;6.02;65.84
63407;SHT31;49543;45.892;10.838;2023-02-11T21:58:11;6.00;63.27
63407;SHT31;49543;45.892;10.838;2023-02-11T22:00:36;5.95;61.74
63407;SHT31;49543;45.892;10.838;2023-02-11T22:03:04;5.97;61.99
63407;SHT31;49543;45.892;10.838;2023-02-11T22:05:38;5.98;61.22
63407;SHT31;49543;45.892;10.838;2023-02-11T22:08:06;5.98;59.96
63407;SHT31;49543;45.892;10.838;2023-02-11T22:10:32;6.01;59.40
63407;SHT31;49543;45.892;10.838;2023-02-11T22:13:00;6.08;60.26
63407;SHT31;49543;45.892;10.838;2023-02-11T22:15:26;6.08;60.07
63407;SHT31;49543;45.892;10.838;2023-02-11T22:17:51;6.09;60.39
63407;SHT31;49543;45.892;10.838;2023-02-11T22:20:16;6.11;61.86
63407;SHT31;49543;45.892;10.838;2023-02-11T22:22:42;6.14;62.10
63407;SHT31;49543;45.892;10.838;2023-02-11T22:25:07;6.15;64.71
63407;SHT31;49543;45.892;10.838;2023-02-11T22:27:48;6.18;64.22
63407;SHT31;49543;45.892;10.838;2023-02-11T22:30:14;6.12;64.55
63407;SHT31;49543;45.892;10.838;2023-02-11T22:32:39;6.15;63.51
63407;SHT31;49543;45.892;10.838;2023-02-11T22:35:06;6.11;60.84
63407;SHT31;49543;45.892;10.838;2023-02-11T22:37:32;6.12;60.22
63407;SHT31;49543;45.892;10.838;2023-02-11T22:39:57;6.12;65.10
63407;SHT31;49543;45.892;10.838;2023-02-11T22:42:22;6.12;64.85
63407;SHT31;49543;45.892;10.838;2023-02-11T22:44:48;6.12;65.68
63407;SHT31;49543;45.892;10.838;2023-02-11T22:47:16;6.07;66.96
63407;SHT31;49543;45.892;10.838;2023-02-11T22:49:42;6.05;65.52
